Churchill Airport
CYYQ : now visible

Airfield :











YOU CAN JOIN US ON...

 
LOGIN :

Register | Disclaimer

   EN    FR    IT 

 









Legend :    VFR   Marginal VFR   IFR   Intensive IFR   Very Intensive IFR
Visi :
Ceiling :
>= 8 km
>= 3000ft
5 to 8 km
1000 to 3000 ft
1500m to 5 km
500 to 1000 ft
800 to 1500m
200 to 500 ft
< 800m
< 200 ft
Symbols :   Thunderstorms  Fog  Heavy snow  Heavy precipitations  Wind > 20 kt






- Airport Elevation : 94 ft
- IATA code : YYQ


CYYQ - Churchill

CURRENT METAR :
  • 072100Z 10021KT 15SM DRSN BKN270 M09/M10 A2975 RMK CI5 SLP079

EXPIRED METARs :
  • 072000Z 10020G26KT 12SM DRSN BKN270 M10/M11 A2976 RMK CI5 SLP083
  • 071900Z 10018G24KT 15SM DRSN SCT270 M11/M12 A2979 RMK CI3 SLP094
  • 071819Z 11019KT 15SM DRSN FEW270 M11/M13 A2980 RMK CI2 SLP097

TAF TAF CYYQ
Valid from the 07 at 18:00 until the 08 at 18:00 UTC


071740Z 0718/0818 10018G28KT P6SM SCT100 SCT250
FM080000 10015G25KT P6SM SCT020 BKN100 OVC250
FM080300 09015G25KT P6SM -SN SCT004 BKN020 OVC100
FM080600 06012G22KT 6SM -SN SCT004 OVC020
TEMPO 0806/0818 2SM -SN BR OVC004 RMK NXT FCST BY 080000Z



MET'MAP, your aeronautical weather chart ! - Copyright ORBIFLY December 2007 - Disclaimer

ORBIFLY MET'MAP TEAM :

Programming & Development : Alexandra Zaïnal
Concept & original design : Baudouin d'Aumeries
Assistance for programming : Marc-Olivier Méhu
Technical & hardware support : Manuel Goepfert

Contact : metmap@orbifly.com




SOURCES & CREDITS :

   NOAA       Earth
Advisory